createdAt,value
2022-10-13T00:00:44.113Z,93921.03
2022-10-13T00:03:11.658Z,93927.56
2022-10-13T00:05:47.185Z,93939.84
2022-10-13T00:08:18.958Z,93928.09
2022-10-13T00:10:48.422Z,93933.13
2022-10-13T00:13:16.159Z,93944.34
2022-10-13T00:15:45.222Z,93954.97
2022-10-13T00:18:12.718Z,93925.03
2022-10-13T00:20:48.676Z,93939.56
2022-10-13T00:23:16.952Z,93948.19
2022-10-13T00:25:45.864Z,93931.22
2022-10-13T00:28:13.844Z,93942.44
2022-10-13T00:30:41.212Z,93939.91
2022-10-13T00:33:08.952Z,93920.00
2022-10-13T00:35:41.959Z,93914.16
2022-10-13T00:38:08.682Z,93874.38
2022-10-13T00:40:45.201Z,93936.75
2022-10-13T00:43:53.788Z,93907.19
2022-10-13T00:46:22.322Z,93932.19
2022-10-13T00:48:50.699Z,93934.75
2022-10-13T00:51:22.524Z,93943.38
2022-10-13T00:53:49.533Z,93950.63
2022-10-13T00:56:19.718Z,93943.41
2022-10-13T00:58:47.900Z,93953.53
2022-10-13T01:01:14.846Z,93926.13
2022-10-13T01:03:41.635Z,93896.88
2022-10-13T01:06:10.001Z,93955.97
2022-10-13T01:08:36.885Z,93954.72
2022-10-13T01:11:11.147Z,93959.84
2022-10-13T01:13:46.629Z,93945.19
2022-10-13T01:16:40.936Z,93953.59
2022-10-13T01:19:27.260Z,93925.88
2022-10-13T01:21:53.834Z,93957.19
2022-10-13T01:24:26.685Z,93958.38
2022-10-13T01:27:03.938Z,93958.69
2022-10-13T01:30:04.630Z,93955.41
2022-10-13T01:32:56.040Z,93958.13
2022-10-13T01:35:40.844Z,93955.91
2022-10-13T01:38:12.277Z,93952.16
2022-10-13T01:40:47.852Z,93942.88
2022-10-13T01:43:22.224Z,93941.66
2022-10-13T01:45:58.771Z,93948.97
2022-10-13T01:48:27.152Z,93924.38
2022-10-13T01:50:54.208Z,93942.16
2022-10-13T01:53:22.489Z,93939.16
2022-10-13T01:56:00.271Z,93957.66
2022-10-13T01:58:30.512Z,93953.63
2022-10-13T02:01:15.401Z,93954.28
2022-10-13T02:04:06.764Z,93938.31
2022-10-13T02:06:43.872Z,93943.56
2022-10-13T02:09:18.527Z,93957.53
2022-10-13T02:11:51.620Z,93956.59
2022-10-13T02:14:26.457Z,93932.69
2022-10-13T02:16:55.937Z,93923.88
2022-10-13T02:19:23.634Z,93942.03
2022-10-13T02:21:53.239Z,93936.28
2022-10-13T02:24:20.043Z,93946.69
2022-10-13T02:26:47.453Z,93938.38
2022-10-13T02:29:16.691Z,93956.06
2022-10-13T02:31:44.768Z,93952.06
2022-10-13T02:34:12.718Z,93940.03
2022-10-13T02:36:39.909Z,93948.38
2022-10-13T02:39:11.053Z,93948.66
2022-10-13T02:41:38.371Z,93949.19
2022-10-13T02:44:06.339Z,93924.81
2022-10-13T02:46:33.109Z,93951.47
2022-10-13T02:48:59.688Z,93930.75
2022-10-13T02:51:26.916Z,93950.22
2022-10-13T02:53:53.709Z,93917.41
2022-10-13T02:56:20.304Z,93948.22
2022-10-13T02:58:46.907Z,93907.25
2022-10-13T03:01:15.483Z,93944.91
2022-10-13T03:03:42.539Z,93944.91
2022-10-13T03:06:09.516Z,93926.88
2022-10-13T03:08:36.611Z,93945.47
2022-10-13T03:11:03.611Z,93920.09
2022-10-13T03:13:30.673Z,93951.06
2022-10-13T03:15:57.356Z,93926.59
2022-10-13T03:18:24.686Z,93940.00
2022-10-13T03:20:59.292Z,93927.53
2022-10-13T03:23:26.523Z,93940.72
2022-10-13T03:25:53.698Z,93933.00
2022-10-13T03:28:20.925Z,93945.78
2022-10-13T03:30:47.637Z,93942.75
2022-10-13T03:33:14.358Z,93921.84
2022-10-13T03:35:41.069Z,93911.56
2022-10-13T03:38:08.352Z,93935.16
2022-10-13T03:40:38.046Z,93932.72
2022-10-13T03:43:04.767Z,93911.38
2022-10-13T03:45:31.561Z,93926.81
2022-10-13T03:47:58.752Z,93923.78
2022-10-13T03:50:25.884Z,93917.97
2022-10-13T03:52:52.551Z,93919.41
2022-10-13T03:55:19.226Z,93924.97
2022-10-13T03:57:45.940Z,93928.88
2022-10-13T04:00:13.485Z,93909.66
2022-10-13T04:02:40.160Z,93918.53
2022-10-13T04:05:06.997Z,93915.50
2022-10-13T04:07:33.731Z,93918.28
2022-10-13T04:10:00.337Z,93912.88
2022-10-13T04:12:27.440Z,93912.97
2022-10-13T04:14:54.308Z,93914.00
2022-10-13T04:17:20.953Z,93893.84
2022-10-13T04:19:47.682Z,93881.94
2022-10-13T04:22:14.304Z,93905.28
2022-10-13T04:24:40.963Z,93892.13
2022-10-13T04:27:07.686Z,93910.53
2022-10-13T04:29:34.327Z,93902.75
2022-10-13T04:32:01.129Z,93903.78
2022-10-13T04:34:27.806Z,93902.78
2022-10-13T04:36:54.400Z,93909.09
2022-10-13T04:39:21.056Z,93909.28
2022-10-13T04:41:48.276Z,93905.06
2022-10-13T04:44:14.886Z,93908.31
2022-10-13T04:46:41.526Z,93907.00
2022-10-13T04:49:08.230Z,93888.06
2022-10-13T04:51:35.034Z,93888.06
2022-10-13T04:54:02.406Z,93885.03
2022-10-13T04:56:29.298Z,93888.94
2022-10-13T04:58:56.155Z,93871.03
2022-10-13T05:01:26.374Z,93894.56
2022-10-13T05:03:59.144Z,93888.94
2022-10-13T05:06:28.518Z,93892.66
2022-10-13T05:08:55.957Z,93886.56
2022-10-13T05:11:24.209Z,93906.22
2022-10-13T05:13:50.980Z,93873.06
2022-10-13T05:16:19.184Z,93893.59
2022-10-13T05:18:46.336Z,93883.00
2022-10-13T05:21:16.159Z,93905.66
2022-10-13T05:23:43.660Z,93881.50
2022-10-13T05:26:13.681Z,93899.03
2022-10-13T05:28:41.173Z,93882.34
2022-10-13T05:31:10.767Z,93903.94
2022-10-13T05:33:38.324Z,93903.13
2022-10-13T05:36:10.564Z,93910.34
2022-10-13T05:38:37.663Z,93901.50
2022-10-13T05:41:10.795Z,93904.47
2022-10-13T05:43:41.816Z,93899.06
2022-10-13T05:46:09.228Z,93885.25
2022-10-13T05:48:37.226Z,93901.69
2022-10-13T05:51:10.542Z,93882.63
2022-10-13T05:53:45.504Z,93896.41
2022-10-13T05:56:19.954Z,93867.72
2022-10-13T05:58:53.147Z,93893.47
2022-10-13T06:01:23.604Z,93898.63
2022-10-13T06:03:54.041Z,93905.03
2022-10-13T06:06:25.766Z,93883.84
2022-10-13T06:08:54.744Z,93899.19
2022-10-13T06:11:21.330Z,93886.72
2022-10-13T06:13:47.943Z,93883.84
2022-10-13T06:16:14.713Z,93903.72
2022-10-13T06:18:41.510Z,93899.53
2022-10-13T06:21:08.264Z,93898.88
2022-10-13T06:23:34.919Z,93888.00
2022-10-13T06:26:01.618Z,93894.84
2022-10-13T06:28:28.228Z,93903.25
2022-10-13T06:30:56.867Z,93874.13
2022-10-13T06:33:25.010Z,93899.03
2022-10-13T06:35:52.520Z,93906.16
2022-10-13T06:38:20.098Z,93877.88
2022-10-13T06:40:46.764Z,93906.66
2022-10-13T06:43:13.442Z,93888.56
2022-10-13T06:45:40.129Z,93894.94
2022-10-13T06:48:06.947Z,93872.91
2022-10-13T06:50:33.615Z,93875.69
2022-10-13T06:53:00.292Z,93872.09
2022-10-13T06:55:27.089Z,93871.75
2022-10-13T06:57:53.716Z,93888.44
2022-10-13T07:00:20.634Z,93886.69
2022-10-13T07:02:50.449Z,93888.88
2022-10-13T07:05:17.401Z,93887.91
2022-10-13T07:07:44.140Z,93853.22
2022-10-13T07:10:10.775Z,93882.69
2022-10-13T07:12:37.391Z,93879.00
2022-10-13T07:15:04.288Z,93816.22
2022-10-13T07:17:30.996Z,93844.41
2022-10-13T07:19:58.087Z,93869.47
2022-10-13T07:22:26.803Z,93876.06
2022-10-13T07:24:53.611Z,93872.84
2022-10-13T07:27:20.634Z,93879.13
2022-10-13T07:29:47.447Z,93878.75
2022-10-13T07:32:14.196Z,93869.53
2022-10-13T07:34:40.864Z,93849.28
2022-10-13T07:37:07.517Z,93849.22
2022-10-13T07:39:34.181Z,93867.44
2022-10-13T07:42:00.865Z,93851.66
2022-10-13T07:44:27.541Z,93850.13
2022-10-13T07:46:54.737Z,93845.63
2022-10-13T07:49:21.341Z,93847.31
2022-10-13T07:51:47.983Z,93840.50
2022-10-13T07:54:14.835Z,93793.47
2022-10-13T07:56:41.568Z,93837.88
2022-10-13T07:59:08.370Z,93828.75
2022-10-13T08:01:35.208Z,93806.31
2022-10-13T08:04:01.848Z,93823.94
2022-10-13T08:06:28.563Z,93810.13
2022-10-13T08:08:55.355Z,93800.03
2022-10-13T08:11:22.035Z,93806.00
2022-10-13T08:13:52.477Z,93824.75
2022-10-13T08:16:19.731Z,93833.72
2022-10-13T08:18:46.481Z,93835.25
2022-10-13T08:21:52.805Z,93810.91
2022-10-13T08:24:06.227Z,93819.19
2022-10-13T08:26:33.360Z,93821.72
2022-10-13T08:29:20.099Z,93825.84
2022-10-13T08:31:46.845Z,93788.19
2022-10-13T08:34:13.662Z,93819.44
2022-10-13T08:36:40.539Z,93817.22
2022-10-13T08:39:07.404Z,93806.56
2022-10-13T08:41:40.408Z,93777.53
2022-10-13T08:47:22.392Z,93798.41
2022-10-13T08:49:49.287Z,93805.50
2022-10-13T08:52:25.827Z,93804.53
2022-10-13T08:54:54.807Z,93800.25
2022-10-13T08:57:22.556Z,93799.22
2022-10-13T08:59:50.024Z,93813.13
2022-10-13T09:02:25.189Z,93801.91
2022-10-13T09:04:53.915Z,93805.38
2022-10-13T09:07:26.529Z,93803.06
2022-10-13T09:09:54.809Z,93802.41
2022-10-13T09:12:25.525Z,93820.91
2022-10-13T09:15:07.279Z,93824.16
2022-10-13T09:17:35.086Z,93821.91
2022-10-13T09:20:25.021Z,93826.09
2022-10-13T09:23:05.913Z,93820.59
2022-10-13T09:25:41.959Z,93817.16
2022-10-13T09:28:20.446Z,93820.16
2022-10-13T09:30:48.056Z,93825.19
2022-10-13T09:33:20.225Z,93825.72
2022-10-13T09:36:11.115Z,93827.16
2022-10-13T09:38:39.265Z,93775.19
2022-10-13T09:41:09.115Z,93822.91
2022-10-13T09:43:47.668Z,93821.66
2022-10-13T09:46:34.463Z,93822.06
2022-10-13T09:49:07.256Z,93824.69
2022-10-13T09:51:43.092Z,93816.69
2022-10-13T09:54:36.187Z,93818.41
2022-10-13T09:57:24.653Z,93783.63
2022-10-13T09:59:53.983Z,93812.16
2022-10-13T10:02:30.565Z,93810.81
2022-10-13T10:05:05.209Z,93808.69
2022-10-13T10:07:33.272Z,93816.16
2022-10-13T10:10:05.322Z,93815.88
2022-10-13T10:12:36.537Z,93803.81
2022-10-13T10:15:09.567Z,93796.31
2022-10-13T10:17:54.387Z,93793.09
2022-10-13T10:20:36.179Z,93794.66
2022-10-13T10:23:21.088Z,93795.22
2022-10-13T10:25:52.642Z,93808.06
2022-10-13T10:28:31.326Z,93811.31
2022-10-13T10:31:21.001Z,93807.81
2022-10-13T10:34:21.832Z,93802.94
2022-10-13T10:37:00.611Z,93798.16
2022-10-13T10:39:36.878Z,93765.81
2022-10-13T10:42:25.526Z,93780.94
2022-10-13T10:44:55.223Z,93785.41
2022-10-13T10:47:29.681Z,93770.03
2022-10-13T10:50:06.235Z,93769.16
2022-10-13T10:52:44.629Z,93758.53
2022-10-13T10:55:20.876Z,93763.69
2022-10-13T10:57:53.174Z,93754.66
2022-10-13T11:00:22.376Z,93745.66
2022-10-13T11:03:07.798Z,93745.72
2022-10-13T11:05:59.136Z,93746.22
2022-10-13T11:08:27.460Z,93749.47
2022-10-13T11:11:24.688Z,93756.22
2022-10-13T11:14:24.864Z,93750.47
2022-10-13T11:17:06.780Z,93742.78
2022-10-13T11:19:36.154Z,93758.75
2022-10-13T11:22:02.736Z,93750.69
2022-10-13T11:24:41.377Z,93738.94
2022-10-13T11:27:07.893Z,93739.38
2022-10-13T11:29:43.535Z,93738.25
2022-10-13T11:32:35.440Z,93726.69
2022-10-13T11:35:04.868Z,93726.00
2022-10-13T11:37:34.463Z,93719.78
2022-10-13T11:40:08.340Z,93696.34
2022-10-13T11:42:37.659Z,93710.88
2022-10-13T11:45:22.273Z,93712.22
2022-10-13T11:48:26.471Z,93716.16
2022-10-13T11:51:06.311Z,93703.25
2022-10-13T11:54:06.129Z,93689.56
2022-10-13T11:56:39.544Z,93676.44
2022-10-13T11:59:27.481Z,93687.13
2022-10-13T12:02:16.036Z,93682.97
2022-10-13T12:05:03.680Z,93657.41
2022-10-13T12:07:40.143Z,93678.41
2022-10-13T12:10:16.481Z,93675.78
2022-10-13T12:12:48.968Z,93672.31
2022-10-13T12:15:30.172Z,93663.38
2022-10-13T12:17:57.175Z,93655.91
2022-10-13T12:20:28.524Z,93631.81
2022-10-13T12:22:56.160Z,93656.75
2022-10-13T12:25:26.669Z,93642.91
2022-10-13T12:27:59.564Z,93643.00
2022-10-13T12:30:29.655Z,93634.59
2022-10-13T12:32:59.398Z,93634.66
2022-10-13T12:35:33.928Z,93634.38
2022-10-13T12:38:05.731Z,93614.03
2022-10-13T12:40:33.531Z,93632.94
2022-10-13T12:43:00.964Z,93626.50
2022-10-13T12:45:31.804Z,93605.63
2022-10-13T12:47:58.441Z,93634.13
2022-10-13T12:50:25.036Z,93634.41
2022-10-13T12:52:54.324Z,93636.69
2022-10-13T12:55:22.839Z,93627.47
2022-10-13T12:57:51.493Z,93630.13
2022-10-13T13:00:26.412Z,93623.66
2022-10-13T13:02:55.113Z,93623.78
2022-10-13T13:05:38.332Z,93616.69
2022-10-13T13:08:22.058Z,93612.50
2022-10-13T13:10:56.280Z,93606.44
2022-10-13T13:13:24.011Z,93613.34
2022-10-13T13:15:51.155Z,93621.66
2022-10-13T13:18:39.603Z,93617.69
2022-10-13T13:21:08.068Z,93621.25
2022-10-13T13:23:35.828Z,93619.53
2022-10-13T13:26:12.405Z,93626.94
2022-10-13T13:28:44.060Z,93631.44
2022-10-13T13:31:12.747Z,93635.94
2022-10-13T13:33:39.767Z,93619.78
2022-10-13T13:36:18.294Z,93638.91
2022-10-13T13:38:45.144Z,93639.41
2022-10-13T13:41:12.335Z,93639.06
2022-10-13T13:43:39.681Z,93629.91
2022-10-13T13:46:07.923Z,93622.00
2022-10-13T13:48:34.527Z,93621.34
2022-10-13T13:51:01.199Z,93614.03
2022-10-13T13:53:28.048Z,93595.84
2022-10-13T13:55:55.031Z,93600.78
2022-10-13T13:58:21.712Z,93597.94
2022-10-13T14:00:48.720Z,93613.69
2022-10-13T14:03:19.265Z,93600.97
2022-10-13T14:05:46.245Z,93611.63
2022-10-13T14:08:12.875Z,93616.13
2022-10-13T14:10:40.219Z,93616.25
2022-10-13T14:13:07.126Z,93605.41
2022-10-13T14:15:34.203Z,93604.63
2022-10-13T14:18:00.917Z,93579.63
2022-10-13T14:20:27.746Z,93596.91
2022-10-13T14:22:54.408Z,93594.88
2022-10-13T14:25:21.202Z,93596.69
2022-10-13T14:27:47.790Z,93588.22
2022-10-13T14:30:14.786Z,93565.16
2022-10-13T14:32:42.491Z,93590.78
2022-10-13T14:35:09.432Z,93597.59
2022-10-13T14:37:36.343Z,93594.56
2022-10-13T14:40:03.460Z,93577.31
2022-10-13T14:42:30.105Z,93588.63
2022-10-13T14:44:56.803Z,93590.34
2022-10-13T14:47:23.894Z,93591.97
2022-10-13T14:49:50.680Z,93563.78
2022-10-13T14:52:17.284Z,93590.09
2022-10-13T14:54:44.986Z,93573.47
2022-10-13T14:57:15.989Z,93557.00
2022-10-13T14:59:43.236Z,93573.22
2022-10-13T15:02:13.929Z,93575.38
2022-10-13T15:04:40.738Z,93572.16
2022-10-13T15:07:07.732Z,93566.81
2022-10-13T15:09:45.501Z,93569.41
2022-10-13T15:12:19.673Z,93579.69
2022-10-13T15:14:46.515Z,93556.91
2022-10-13T15:17:13.108Z,93572.75
2022-10-13T15:19:39.865Z,93564.69
2022-10-13T15:22:06.511Z,93581.31
2022-10-13T15:24:33.176Z,93559.94
2022-10-13T15:26:59.812Z,93561.06
2022-10-13T15:29:26.473Z,93555.84
2022-10-13T15:32:06.412Z,93579.13
2022-10-13T15:34:33.081Z,93567.34
2022-10-13T15:36:59.747Z,93569.97
2022-10-13T15:39:26.439Z,93553.50
2022-10-13T15:41:53.018Z,93565.28
2022-10-13T15:44:21.053Z,93574.44
2022-10-13T15:47:06.716Z,93573.03
2022-10-13T15:49:39.680Z,93578.81
2022-10-13T15:52:06.452Z,93570.78
2022-10-13T15:54:36.093Z,93582.22
2022-10-13T15:57:03.098Z,93582.94
2022-10-13T15:59:29.827Z,93575.75
2022-10-13T16:01:56.492Z,93569.75
2022-10-13T16:04:23.285Z,93590.28
2022-10-13T16:06:49.990Z,93593.13
2022-10-13T16:09:16.709Z,93594.28
2022-10-13T16:11:43.339Z,93605.81
2022-10-13T16:14:10.075Z,93593.09
2022-10-13T16:16:36.746Z,93599.88
2022-10-13T16:19:03.513Z,93582.19
2022-10-13T16:21:30.224Z,93611.16
2022-10-13T16:23:56.963Z,93599.81
2022-10-13T16:26:24.064Z,93601.41
2022-10-13T16:28:54.928Z,93600.91
2022-10-13T16:31:21.641Z,93591.22
2022-10-13T16:33:48.404Z,93619.53
2022-10-13T16:36:18.040Z,93616.66
2022-10-13T16:38:46.274Z,93595.91
2022-10-13T16:41:15.736Z,93606.03
2022-10-13T16:43:42.951Z,93620.38
2022-10-13T16:46:13.368Z,93626.09
2022-10-13T16:48:41.436Z,93675.59
2022-10-13T16:51:11.564Z,93654.69
2022-10-13T16:53:38.735Z,93649.03
2022-10-13T16:56:07.045Z,93624.53
2022-10-13T16:58:34.476Z,93629.88
2022-10-13T17:01:08.514Z,93623.91
2022-10-13T17:03:36.539Z,93623.69
2022-10-13T17:06:03.704Z,93625.16
2022-10-13T17:08:30.881Z,93620.88
2022-10-13T17:10:59.863Z,93642.13
2022-10-13T17:13:26.905Z,93645.19
2022-10-13T17:15:55.839Z,93640.28
2022-10-13T17:18:23.455Z,93667.47
2022-10-13T17:21:00.942Z,93664.22
2022-10-13T17:23:31.179Z,93651.13
2022-10-13T17:26:06.275Z,93661.75
2022-10-13T17:28:34.273Z,93689.47
2022-10-13T17:31:11.948Z,93675.22
2022-10-13T17:33:40.388Z,93675.44
2022-10-13T17:36:25.531Z,93672.38
2022-10-13T17:38:55.082Z,93681.28
2022-10-13T17:41:23.088Z,93667.88
2022-10-13T17:43:51.441Z,93689.72
2022-10-13T17:46:40.823Z,93686.69
2022-10-13T17:49:11.471Z,93684.91
2022-10-13T17:51:39.502Z,93667.69
2022-10-13T17:54:08.236Z,93689.13
2022-10-13T17:56:38.185Z,93684.81
2022-10-13T17:59:04.826Z,93692.00
2022-10-13T18:01:33.842Z,93681.78
2022-10-13T18:04:03.757Z,93696.50
2022-10-13T18:06:43.887Z,93691.22
2022-10-13T18:09:24.141Z,93692.66
2022-10-13T18:11:53.534Z,93687.50
2022-10-13T18:14:22.041Z,93697.69
2022-10-13T18:16:49.860Z,93701.59
2022-10-13T18:19:16.902Z,93680.75
2022-10-13T18:21:43.552Z,93701.16
2022-10-13T18:24:11.477Z,93699.75
2022-10-13T18:26:38.508Z,93693.66
2022-10-13T18:29:07.428Z,93700.53
2022-10-13T18:31:36.849Z,93689.75
2022-10-13T18:34:07.258Z,93692.00
2022-10-13T18:36:35.201Z,93685.75
2022-10-13T18:39:06.118Z,93712.97
2022-10-13T18:41:34.028Z,93706.25
2022-10-13T18:44:00.901Z,93706.94
2022-10-13T18:46:27.532Z,93700.97
2022-10-13T18:48:54.817Z,93701.41
2022-10-13T18:51:22.791Z,93697.75
2022-10-13T18:53:52.477Z,93686.06
2022-10-13T18:56:21.932Z,93698.53
2022-10-13T18:58:49.297Z,93669.53
2022-10-13T19:01:21.816Z,93698.34
2022-10-13T19:03:50.940Z,93699.47
2022-10-13T19:06:19.436Z,93704.03
2022-10-13T19:08:46.733Z,93691.81
2022-10-13T19:11:19.538Z,93691.19
2022-10-13T19:13:47.350Z,93692.41
2022-10-13T19:16:16.648Z,93696.88
2022-10-13T19:18:44.246Z,93689.94
2022-10-13T19:21:11.851Z,93701.34
2022-10-13T19:23:39.155Z,93682.97
2022-10-13T19:26:11.247Z,93690.16
2022-10-13T19:28:41.839Z,93700.16
2022-10-13T19:31:20.207Z,93701.38
2022-10-13T19:33:47.996Z,93705.84
2022-10-13T19:36:22.816Z,93709.03
2022-10-13T19:38:50.510Z,93702.50
2022-10-13T19:41:17.800Z,93709.41
2022-10-13T19:43:44.387Z,93724.94
2022-10-13T19:46:11.327Z,93719.72
2022-10-13T19:48:37.972Z,93710.31
2022-10-13T19:51:07.038Z,93724.66
2022-10-13T19:53:34.840Z,93720.13
2022-10-13T19:56:01.595Z,93701.13
2022-10-13T19:58:28.254Z,93706.88
2022-10-13T20:00:54.942Z,93722.97
2022-10-13T20:03:22.657Z,93727.84
2022-10-13T20:05:49.380Z,93724.78
2022-10-13T20:08:16.040Z,93724.31
2022-10-13T20:10:43.763Z,93731.53
2022-10-13T20:13:11.641Z,93729.88
2022-10-13T20:15:40.836Z,93730.72
2022-10-13T20:18:09.265Z,93729.66
2022-10-13T20:20:36.755Z,93728.31
2022-10-13T20:23:03.632Z,93732.34
2022-10-13T20:25:30.540Z,93728.66
2022-10-13T20:27:57.156Z,93711.91
2022-10-13T20:30:23.780Z,93740.56
2022-10-13T20:32:50.357Z,93735.47
2022-10-13T20:35:17.036Z,93749.97
2022-10-13T20:37:43.949Z,93734.28
2022-10-13T20:40:10.844Z,93736.56
2022-10-13T20:42:37.522Z,93739.81
2022-10-13T20:45:04.495Z,93735.44
2022-10-13T20:47:31.120Z,93714.34
2022-10-13T20:49:57.767Z,93733.38
2022-10-13T20:52:24.351Z,93721.38
2022-10-13T20:54:50.929Z,93704.78
2022-10-13T20:57:17.657Z,93730.41
2022-10-13T20:59:44.348Z,93723.44
2022-10-13T21:02:13.893Z,93695.88
2022-10-13T21:04:40.605Z,93713.56
2022-10-13T21:07:07.286Z,93724.47
2022-10-13T21:09:37.027Z,93729.31
2022-10-13T21:12:03.843Z,93656.47
2022-10-13T21:14:30.533Z,93710.09
2022-10-13T21:16:57.200Z,93725.19
2022-10-13T21:19:24.861Z,93725.19
2022-10-13T21:21:51.481Z,93728.66
2022-10-13T21:24:18.061Z,93722.53
2022-10-13T21:26:44.705Z,93736.84
2022-10-13T21:29:11.368Z,93712.06
2022-10-13T21:31:37.940Z,93731.09
2022-10-13T21:34:04.604Z,93704.09
2022-10-13T21:36:32.708Z,93729.25
2022-10-13T21:39:01.844Z,93717.59
2022-10-13T21:41:29.227Z,93737.63
2022-10-13T21:43:56.291Z,93726.19
2022-10-13T21:46:25.451Z,93739.38
2022-10-13T21:48:54.267Z,93738.94
2022-10-13T21:51:38.305Z,93736.50
2022-10-13T21:54:07.741Z,93745.91
2022-10-13T21:56:35.266Z,93736.13
2022-10-13T21:59:02.237Z,93711.31
2022-10-13T22:01:29.244Z,93711.06
2022-10-13T22:03:57.956Z,93725.09
2022-10-13T22:06:24.796Z,93735.34
2022-10-13T22:08:53.428Z,93733.28
2022-10-13T22:11:21.363Z,93718.72
2022-10-13T22:13:47.967Z,93733.69
2022-10-13T22:16:26.103Z,93736.50
2022-10-13T22:18:54.816Z,93703.72
2022-10-13T22:21:24.646Z,93726.69
2022-10-13T22:23:51.300Z,93723.88
2022-10-13T22:26:19.120Z,93736.50
2022-10-13T22:28:48.286Z,93734.91
2022-10-13T22:31:15.379Z,93718.91
2022-10-13T22:33:44.545Z,93724.41
2022-10-13T22:36:17.097Z,93718.28
2022-10-13T22:38:45.205Z,93734.91
2022-10-13T22:41:13.165Z,93727.47
2022-10-13T22:43:40.043Z,93725.81
2022-10-13T22:46:06.707Z,93731.72
2022-10-13T22:48:38.254Z,93731.84
2022-10-13T22:51:07.897Z,93695.06
2022-10-13T22:53:34.728Z,93673.44
2022-10-13T22:56:05.552Z,93721.75
2022-10-13T22:58:32.206Z,93717.38
2022-10-13T23:01:08.629Z,93718.44
2022-10-13T23:03:36.665Z,93709.09
2022-10-13T23:06:04.192Z,93716.81
2022-10-13T23:08:31.193Z,93713.94
2022-10-13T23:10:57.983Z,93712.44
2022-10-13T23:13:25.146Z,93716.38
2022-10-13T23:15:51.778Z,93699.38
2022-10-13T23:18:18.404Z,93697.34
2022-10-13T23:20:45.000Z,93706.38
2022-10-13T23:23:11.620Z,93687.53
2022-10-13T23:25:38.328Z,93687.72
2022-10-13T23:28:05.247Z,93675.28
2022-10-13T23:30:31.915Z,93678.34
2022-10-13T23:32:58.532Z,93679.13
2022-10-13T23:35:25.141Z,93681.63
2022-10-13T23:37:52.832Z,93694.75
2022-10-13T23:40:20.180Z,93707.00
2022-10-13T23:42:46.807Z,93680.81
2022-10-13T23:45:13.426Z,93700.88
2022-10-13T23:47:40.097Z,93698.44
2022-10-13T23:50:07.071Z,93697.59
2022-10-13T23:52:33.739Z,93683.69
2022-10-13T23:55:00.347Z,93692.09
2022-10-13T23:57:29.744Z,93678.53
2022-10-13T23:59:56.338Z,93692.72
